METAR Data
IDs: Format: Raw Decoded Include TAF

Data at: 2215 UTC 02 Aug 2021

GMMN 022200Z 02009KT 9999 BKN013 21/17 Q1016 NOSIG